sensor_id;sensor_type;location;lat;lon;timestamp;P1;durP1;ratioP1;P2;durP2;ratioP2
51332;SDS011;37417;48.118;11.734;2024-03-07T00:00:21;12.63;;;10.02;;
51332;SDS011;37417;48.118;11.734;2024-03-07T00:03:07;12.45;;;9.00;;
51332;SDS011;37417;48.118;11.734;2024-03-07T00:05:53;11.13;;;8.98;;
51332;SDS011;37417;48.118;11.734;2024-03-07T00:08:38;12.63;;;9.80;;
51332;SDS011;37417;48.118;11.734;2024-03-07T00:11:23;13.00;;;8.63;;
51332;SDS011;37417;48.118;11.734;2024-03-07T00:14:09;14.48;;;9.45;;
51332;SDS011;37417;48.118;11.734;2024-03-07T00:16:55;12.30;;;8.65;;
51332;SDS011;37417;48.118;11.734;2024-03-07T00:19:41;11.23;;;7.93;;
51332;SDS011;37417;48.118;11.734;2024-03-07T00:22:27;11.43;;;9.02;;
51332;SDS011;37417;48.118;11.734;2024-03-07T00:25:15;11.95;;;8.07;;
51332;SDS011;37417;48.118;11.734;2024-03-07T00:28:04;13.27;;;9.27;;
51332;SDS011;37417;48.118;11.734;2024-03-07T00:30:50;13.25;;;9.93;;
51332;SDS011;37417;48.118;11.734;2024-03-07T00:33:36;10.73;;;8.63;;
51332;SDS011;37417;48.118;11.734;2024-03-07T00:36:22;14.35;;;9.98;;
51332;SDS011;37417;48.118;11.734;2024-03-07T00:39:07;11.88;;;8.55;;
51332;SDS011;37417;48.118;11.734;2024-03-07T00:41:59;13.38;;;9.23;;
51332;SDS011;37417;48.118;11.734;2024-03-07T00:44:44;10.57;;;8.30;;
51332;SDS011;37417;48.118;11.734;2024-03-07T00:47:30;13.13;;;9.10;;
51332;SDS011;37417;48.118;11.734;2024-03-07T00:50:17;12.05;;;8.88;;
51332;SDS011;37417;48.118;11.734;2024-03-07T00:53:02;13.07;;;9.68;;
51332;SDS011;37417;48.118;11.734;2024-03-07T00:55:48;11.60;;;8.40;;
51332;SDS011;37417;48.118;11.734;2024-03-07T00:58:34;14.45;;;10.95;;
51332;SDS011;37417;48.118;11.734;2024-03-07T01:01:20;16.50;;;11.27;;
51332;SDS011;37417;48.118;11.734;2024-03-07T01:04:06;15.93;;;10.45;;
51332;SDS011;37417;48.118;11.734;2024-03-07T01:06:52;13.48;;;9.90;;
51332;SDS011;37417;48.118;11.734;2024-03-07T01:09:38;13.82;;;9.60;;
51332;SDS011;37417;48.118;11.734;2024-03-07T01:12:23;16.58;;;11.40;;
51332;SDS011;37417;48.118;11.734;2024-03-07T01:15:15;11.10;;;7.70;;
51332;SDS011;37417;48.118;11.734;2024-03-07T01:18:01;15.55;;;9.80;;
51332;SDS011;37417;48.118;11.734;2024-03-07T01:20:47;12.13;;;9.70;;
51332;SDS011;37417;48.118;11.734;2024-03-07T01:23:33;14.48;;;9.82;;
51332;SDS011;37417;48.118;11.734;2024-03-07T01:26:18;14.65;;;10.40;;
51332;SDS011;37417;48.118;11.734;2024-03-07T01:29:04;17.88;;;11.95;;
51332;SDS011;37417;48.118;11.734;2024-03-07T01:31:52;14.52;;;9.93;;
51332;SDS011;37417;48.118;11.734;2024-03-07T01:34:37;15.00;;;10.15;;
51332;SDS011;37417;48.118;11.734;2024-03-07T01:37:23;15.65;;;10.00;;
51332;SDS011;37417;48.118;11.734;2024-03-07T01:40:09;15.13;;;9.82;;
51332;SDS011;37417;48.118;11.734;2024-03-07T01:42:54;19.38;;;8.85;;
51332;SDS011;37417;48.118;11.734;2024-03-07T01:45:40;17.38;;;10.75;;
51332;SDS011;37417;48.118;11.734;2024-03-07T01:48:28;15.27;;;10.45;;
51332;SDS011;37417;48.118;11.734;2024-03-07T01:51:16;16.35;;;11.40;;
51332;SDS011;37417;48.118;11.734;2024-03-07T01:54:02;18.15;;;11.95;;
51332;SDS011;37417;48.118;11.734;2024-03-07T01:56:48;20.02;;;11.63;;
51332;SDS011;37417;48.118;11.734;2024-03-07T01:59:33;16.90;;;12.02;;
51332;SDS011;37417;48.118;11.734;2024-03-07T02:02:20;24.73;;;13.88;;
51332;SDS011;37417;48.118;11.734;2024-03-07T02:05:05;20.92;;;13.20;;
51332;SDS011;37417;48.118;11.734;2024-03-07T02:07:51;24.90;;;12.93;;
51332;SDS011;37417;48.118;11.734;2024-03-07T02:10:37;24.02;;;13.40;;
51332;SDS011;37417;48.118;11.734;2024-03-07T02:13:23;24.83;;;15.40;;
51332;SDS011;37417;48.118;11.734;2024-03-07T02:16:08;24.50;;;14.35;;
51332;SDS011;37417;48.118;11.734;2024-03-07T02:18:54;22.92;;;13.77;;
51332;SDS011;37417;48.118;11.734;2024-03-07T02:21:40;24.65;;;13.60;;
51332;SDS011;37417;48.118;11.734;2024-03-07T02:24:26;23.45;;;13.50;;
51332;SDS011;37417;48.118;11.734;2024-03-07T02:27:11;27.95;;;15.57;;
51332;SDS011;37417;48.118;11.734;2024-03-07T02:29:57;22.77;;;14.48;;
51332;SDS011;37417;48.118;11.734;2024-03-07T02:32:43;29.65;;;15.77;;
51332;SDS011;37417;48.118;11.734;2024-03-07T02:35:33;29.38;;;16.83;;
51332;SDS011;37417;48.118;11.734;2024-03-07T02:38:20;31.33;;;16.77;;
51332;SDS011;37417;48.118;11.734;2024-03-07T02:41:05;23.58;;;13.75;;
51332;SDS011;37417;48.118;11.734;2024-03-07T02:43:51;28.70;;;16.83;;
51332;SDS011;37417;48.118;11.734;2024-03-07T02:46:37;28.35;;;15.93;;
51332;SDS011;37417;48.118;11.734;2024-03-07T02:49:24;26.95;;;16.75;;
51332;SDS011;37417;48.118;11.734;2024-03-07T02:52:09;30.98;;;16.77;;
51332;SDS011;37417;48.118;11.734;2024-03-07T02:54:55;30.15;;;16.80;;
51332;SDS011;37417;48.118;11.734;2024-03-07T02:57:41;29.42;;;17.00;;
51332;SDS011;37417;48.118;11.734;2024-03-07T03:00:26;31.92;;;18.80;;
51332;SDS011;37417;48.118;11.734;2024-03-07T03:03:12;31.88;;;17.67;;
51332;SDS011;37417;48.118;11.734;2024-03-07T03:05:58;37.95;;;21.23;;
51332;SDS011;37417;48.118;11.734;2024-03-07T03:08:44;38.53;;;21.58;;
51332;SDS011;37417;48.118;11.734;2024-03-07T03:11:29;33.47;;;19.88;;
51332;SDS011;37417;48.118;11.734;2024-03-07T03:14:15;34.63;;;19.52;;
51332;SDS011;37417;48.118;11.734;2024-03-07T03:17:00;36.97;;;21.70;;
51332;SDS011;37417;48.118;11.734;2024-03-07T03:19:46;39.75;;;22.63;;
51332;SDS011;37417;48.118;11.734;2024-03-07T03:22:35;39.33;;;23.63;;
51332;SDS011;37417;48.118;11.734;2024-03-07T03:25:21;40.22;;;22.58;;
51332;SDS011;37417;48.118;11.734;2024-03-07T03:28:06;37.63;;;22.20;;
51332;SDS011;37417;48.118;11.734;2024-03-07T03:30:55;44.13;;;24.50;;
51332;SDS011;37417;48.118;11.734;2024-03-07T03:33:40;41.17;;;23.05;;
51332;SDS011;37417;48.118;11.734;2024-03-07T03:36:26;38.97;;;23.13;;
51332;SDS011;37417;48.118;11.734;2024-03-07T03:39:12;45.70;;;24.50;;
51332;SDS011;37417;48.118;11.734;2024-03-07T03:41:58;40.67;;;23.40;;
51332;SDS011;37417;48.118;11.734;2024-03-07T03:44:44;41.67;;;23.52;;
51332;SDS011;37417;48.118;11.734;2024-03-07T03:47:29;50.33;;;26.70;;
51332;SDS011;37417;48.118;11.734;2024-03-07T03:50:15;45.30;;;23.17;;
51332;SDS011;37417;48.118;11.734;2024-03-07T03:53:01;50.85;;;26.77;;
51332;SDS011;37417;48.118;11.734;2024-03-07T03:55:47;47.78;;;26.08;;
51332;SDS011;37417;48.118;11.734;2024-03-07T03:58:32;46.80;;;25.85;;
51332;SDS011;37417;48.118;11.734;2024-03-07T04:01:19;50.55;;;26.52;;
51332;SDS011;37417;48.118;11.734;2024-03-07T04:04:04;50.30;;;29.13;;
51332;SDS011;37417;48.118;11.734;2024-03-07T04:06:50;54.75;;;27.77;;
51332;SDS011;37417;48.118;11.734;2024-03-07T04:09:36;54.63;;;28.05;;
51332;SDS011;37417;48.118;11.734;2024-03-07T04:12:21;49.80;;;27.73;;
51332;SDS011;37417;48.118;11.734;2024-03-07T04:15:07;46.60;;;26.38;;
51332;SDS011;37417;48.118;11.734;2024-03-07T04:17:53;56.05;;;28.48;;
51332;SDS011;37417;48.118;11.734;2024-03-07T04:20:39;51.03;;;27.50;;
51332;SDS011;37417;48.118;11.734;2024-03-07T04:23:24;49.10;;;28.63;;
51332;SDS011;37417;48.118;11.734;2024-03-07T04:26:10;52.20;;;27.90;;
51332;SDS011;37417;48.118;11.734;2024-03-07T04:28:55;47.90;;;27.67;;
51332;SDS011;37417;48.118;11.734;2024-03-07T04:31:41;54.58;;;29.40;;
51332;SDS011;37417;48.118;11.734;2024-03-07T04:34:27;52.55;;;27.73;;
51332;SDS011;37417;48.118;11.734;2024-03-07T04:37:16;52.60;;;28.60;;
51332;SDS011;37417;48.118;11.734;2024-03-07T04:40:03;53.95;;;28.35;;
51332;SDS011;37417;48.118;11.734;2024-03-07T04:42:49;45.70;;;27.08;;
51332;SDS011;37417;48.118;11.734;2024-03-07T04:45:35;49.97;;;28.52;;
51332;SDS011;37417;48.118;11.734;2024-03-07T04:48:20;55.53;;;30.05;;
51332;SDS011;37417;48.118;11.734;2024-03-07T04:51:06;51.25;;;27.83;;
51332;SDS011;37417;48.118;11.734;2024-03-07T04:53:52;55.28;;;28.83;;
51332;SDS011;37417;48.118;11.734;2024-03-07T04:56:37;55.17;;;27.48;;
51332;SDS011;37417;48.118;11.734;2024-03-07T04:59:22;51.08;;;27.98;;
51332;SDS011;37417;48.118;11.734;2024-03-07T05:02:08;53.53;;;28.90;;
51332;SDS011;37417;48.118;11.734;2024-03-07T05:04:54;51.85;;;29.10;;
51332;SDS011;37417;48.118;11.734;2024-03-07T05:07:39;55.40;;;29.65;;
51332;SDS011;37417;48.118;11.734;2024-03-07T05:10:25;52.42;;;30.08;;
51332;SDS011;37417;48.118;11.734;2024-03-07T05:13:13;56.58;;;30.10;;
51332;SDS011;37417;48.118;11.734;2024-03-07T05:15:59;57.20;;;30.15;;
51332;SDS011;37417;48.118;11.734;2024-03-07T05:18:45;51.05;;;28.70;;
51332;SDS011;37417;48.118;11.734;2024-03-07T05:21:31;51.22;;;27.88;;
51332;SDS011;37417;48.118;11.734;2024-03-07T05:24:22;47.07;;;26.63;;
51332;SDS011;37417;48.118;11.734;2024-03-07T05:27:08;50.45;;;29.50;;
51332;SDS011;37417;48.118;11.734;2024-03-07T05:29:56;54.47;;;29.73;;
51332;SDS011;37417;48.118;11.734;2024-03-07T05:32:42;52.58;;;29.55;;
51332;SDS011;37417;48.118;11.734;2024-03-07T05:35:28;55.58;;;30.27;;
51332;SDS011;37417;48.118;11.734;2024-03-07T05:38:17;54.22;;;30.40;;
51332;SDS011;37417;48.118;11.734;2024-03-07T05:41:03;59.08;;;31.02;;
51332;SDS011;37417;48.118;11.734;2024-03-07T05:43:49;55.58;;;30.52;;
51332;SDS011;37417;48.118;11.734;2024-03-07T05:46:37;51.10;;;28.23;;
51332;SDS011;37417;48.118;11.734;2024-03-07T05:49:26;56.03;;;32.47;;
51332;SDS011;37417;48.118;11.734;2024-03-07T05:52:12;52.15;;;29.10;;
51332;SDS011;37417;48.118;11.734;2024-03-07T05:54:57;55.30;;;29.13;;
51332;SDS011;37417;48.118;11.734;2024-03-07T05:57:42;55.33;;;30.08;;
51332;SDS011;37417;48.118;11.734;2024-03-07T06:00:29;61.88;;;31.02;;
51332;SDS011;37417;48.118;11.734;2024-03-07T06:03:18;56.15;;;31.38;;
51332;SDS011;37417;48.118;11.734;2024-03-07T06:06:05;55.63;;;31.33;;
51332;SDS011;37417;48.118;11.734;2024-03-07T06:08:53;64.07;;;33.42;;
51332;SDS011;37417;48.118;11.734;2024-03-07T06:11:39;61.00;;;33.85;;
51332;SDS011;37417;48.118;11.734;2024-03-07T06:14:27;67.95;;;32.63;;
51332;SDS011;37417;48.118;11.734;2024-03-07T06:17:12;65.20;;;33.60;;
51332;SDS011;37417;48.118;11.734;2024-03-07T06:19:58;67.32;;;33.25;;
51332;SDS011;37417;48.118;11.734;2024-03-07T06:22:44;62.92;;;32.88;;
51332;SDS011;37417;48.118;11.734;2024-03-07T06:25:33;62.13;;;30.63;;
51332;SDS011;37417;48.118;11.734;2024-03-07T06:28:21;65.68;;;31.42;;
51332;SDS011;37417;48.118;11.734;2024-03-07T06:31:07;64.35;;;31.88;;
51332;SDS011;37417;48.118;11.734;2024-03-07T06:33:55;63.35;;;34.15;;
51332;SDS011;37417;48.118;11.734;2024-03-07T06:36:41;61.95;;;33.15;;
51332;SDS011;37417;48.118;11.734;2024-03-07T06:39:26;64.93;;;33.00;;
51332;SDS011;37417;48.118;11.734;2024-03-07T06:42:12;58.22;;;30.92;;
51332;SDS011;37417;48.118;11.734;2024-03-07T06:45:00;63.40;;;32.95;;
51332;SDS011;37417;48.118;11.734;2024-03-07T06:47:46;62.55;;;32.17;;
51332;SDS011;37417;48.118;11.734;2024-03-07T06:50:32;60.97;;;31.05;;
51332;SDS011;37417;48.118;11.734;2024-03-07T06:53:18;65.43;;;31.13;;
51332;SDS011;37417;48.118;11.734;2024-03-07T06:56:04;53.47;;;29.98;;
51332;SDS011;37417;48.118;11.734;2024-03-07T06:58:51;54.67;;;30.63;;
51332;SDS011;37417;48.118;11.734;2024-03-07T07:01:37;58.83;;;30.80;;
51332;SDS011;37417;48.118;11.734;2024-03-07T07:04:22;56.03;;;29.75;;
51332;SDS011;37417;48.118;11.734;2024-03-07T07:07:10;54.55;;;31.42;;
51332;SDS011;37417;48.118;11.734;2024-03-07T07:09:58;58.22;;;30.55;;
51332;SDS011;37417;48.118;11.734;2024-03-07T07:12:47;55.25;;;30.05;;
51332;SDS011;37417;48.118;11.734;2024-03-07T07:15:33;66.43;;;32.63;;
51332;SDS011;37417;48.118;11.734;2024-03-07T07:18:18;60.45;;;29.52;;
51332;SDS011;37417;48.118;11.734;2024-03-07T07:21:04;51.08;;;30.98;;
51332;SDS011;37417;48.118;11.734;2024-03-07T07:23:51;54.65;;;32.92;;
51332;SDS011;37417;48.118;11.734;2024-03-07T07:26:36;58.78;;;30.90;;
51332;SDS011;37417;48.118;11.734;2024-03-07T07:29:22;53.25;;;28.98;;
51332;SDS011;37417;48.118;11.734;2024-03-07T07:32:09;54.88;;;29.15;;
51332;SDS011;37417;48.118;11.734;2024-03-07T07:34:57;47.47;;;27.58;;
51332;SDS011;37417;48.118;11.734;2024-03-07T07:37:44;49.15;;;27.52;;
51332;SDS011;37417;48.118;11.734;2024-03-07T07:40:29;50.72;;;28.45;;
51332;SDS011;37417;48.118;11.734;2024-03-07T07:43:16;57.72;;;30.38;;
51332;SDS011;37417;48.118;11.734;2024-03-07T07:46:03;56.33;;;28.20;;
51332;SDS011;37417;48.118;11.734;2024-03-07T07:48:49;54.15;;;26.83;;
51332;SDS011;37417;48.118;11.734;2024-03-07T07:51:35;51.08;;;27.20;;
51332;SDS011;37417;48.118;11.734;2024-03-07T07:54:20;52.55;;;28.70;;
51332;SDS011;37417;48.118;11.734;2024-03-07T07:57:06;50.17;;;26.10;;
51332;SDS011;37417;48.118;11.734;2024-03-07T07:59:52;42.67;;;25.98;;
51332;SDS011;37417;48.118;11.734;2024-03-07T08:02:37;42.17;;;26.67;;
51332;SDS011;37417;48.118;11.734;2024-03-07T08:05:23;47.80;;;27.90;;
51332;SDS011;37417;48.118;11.734;2024-03-07T08:08:09;49.88;;;26.63;;
51332;SDS011;37417;48.118;11.734;2024-03-07T08:10:56;49.00;;;25.55;;
51332;SDS011;37417;48.118;11.734;2024-03-07T08:13:43;40.58;;;24.35;;
51332;SDS011;37417;48.118;11.734;2024-03-07T08:16:29;46.05;;;25.30;;
51332;SDS011;37417;48.118;11.734;2024-03-07T08:19:15;41.72;;;23.38;;
51332;SDS011;37417;48.118;11.734;2024-03-07T08:22:00;42.88;;;25.42;;
51332;SDS011;37417;48.118;11.734;2024-03-07T08:24:47;39.92;;;25.02;;
51332;SDS011;37417;48.118;11.734;2024-03-07T08:27:32;45.10;;;26.05;;
51332;SDS011;37417;48.118;11.734;2024-03-07T08:30:18;43.72;;;23.80;;
51332;SDS011;37417;48.118;11.734;2024-03-07T08:33:03;37.88;;;23.00;;
51332;SDS011;37417;48.118;11.734;2024-03-07T08:35:50;45.50;;;23.77;;
51332;SDS011;37417;48.118;11.734;2024-03-07T08:38:38;40.00;;;23.27;;
51332;SDS011;37417;48.118;11.734;2024-03-07T08:41:24;44.97;;;25.27;;
51332;SDS011;37417;48.118;11.734;2024-03-07T08:44:10;38.45;;;24.85;;
51332;SDS011;37417;48.118;11.734;2024-03-07T08:46:55;37.70;;;23.88;;
51332;SDS011;37417;48.118;11.734;2024-03-07T08:49:41;41.38;;;25.42;;
51332;SDS011;37417;48.118;11.734;2024-03-07T08:52:26;39.42;;;23.83;;
51332;SDS011;37417;48.118;11.734;2024-03-07T08:55:13;47.67;;;25.75;;
51332;SDS011;37417;48.118;11.734;2024-03-07T08:58:02;48.63;;;24.90;;
51332;SDS011;37417;48.118;11.734;2024-03-07T09:00:47;42.50;;;24.27;;
51332;SDS011;37417;48.118;11.734;2024-03-07T09:03:34;42.05;;;23.83;;
51332;SDS011;37417;48.118;11.734;2024-03-07T09:06:19;42.72;;;22.63;;
51332;SDS011;37417;48.118;11.734;2024-03-07T09:09:04;46.28;;;24.80;;
51332;SDS011;37417;48.118;11.734;2024-03-07T09:11:54;43.28;;;23.92;;
51332;SDS011;37417;48.118;11.734;2024-03-07T09:14:39;44.08;;;23.35;;
51332;SDS011;37417;48.118;11.734;2024-03-07T09:17:25;42.83;;;24.70;;
51332;SDS011;37417;48.118;11.734;2024-03-07T09:20:10;44.22;;;24.48;;
51332;SDS011;37417;48.118;11.734;2024-03-07T09:22:59;40.05;;;23.20;;
51332;SDS011;37417;48.118;11.734;2024-03-07T09:25:46;40.45;;;23.55;;
51332;SDS011;37417;48.118;11.734;2024-03-07T09:28:31;38.25;;;21.27;;
51332;SDS011;37417;48.118;11.734;2024-03-07T09:31:17;34.42;;;22.08;;
51332;SDS011;37417;48.118;11.734;2024-03-07T09:34:02;40.10;;;21.85;;
51332;SDS011;37417;48.118;11.734;2024-03-07T09:36:48;37.70;;;22.85;;
51332;SDS011;37417;48.118;11.734;2024-03-07T09:39:34;44.17;;;22.75;;
51332;SDS011;37417;48.118;11.734;2024-03-07T09:42:22;39.13;;;21.02;;
51332;SDS011;37417;48.118;11.734;2024-03-07T09:45:10;32.03;;;19.58;;
51332;SDS011;37417;48.118;11.734;2024-03-07T09:47:56;33.30;;;20.20;;
51332;SDS011;37417;48.118;11.734;2024-03-07T09:50:43;32.90;;;20.27;;
51332;SDS011;37417;48.118;11.734;2024-03-07T09:53:29;32.13;;;19.60;;
51332;SDS011;37417;48.118;11.734;2024-03-07T09:56:22;30.65;;;17.70;;
51332;SDS011;37417;48.118;11.734;2024-03-07T09:59:10;30.88;;;20.20;;
51332;SDS011;37417;48.118;11.734;2024-03-07T10:01:56;40.70;;;20.85;;
51332;SDS011;37417;48.118;11.734;2024-03-07T10:04:43;34.67;;;20.10;;
51332;SDS011;37417;48.118;11.734;2024-03-07T10:07:33;34.08;;;19.98;;
51332;SDS011;37417;48.118;11.734;2024-03-07T10:10:20;36.13;;;20.38;;
51332;SDS011;37417;48.118;11.734;2024-03-07T10:13:06;30.50;;;18.55;;
51332;SDS011;37417;48.118;11.734;2024-03-07T10:15:56;34.22;;;19.90;;
51332;SDS011;37417;48.118;11.734;2024-03-07T10:18:45;35.50;;;21.05;;
51332;SDS011;37417;48.118;11.734;2024-03-07T10:21:33;36.30;;;20.48;;
51332;SDS011;37417;48.118;11.734;2024-03-07T10:24:20;29.48;;;18.63;;
51332;SDS011;37417;48.118;11.734;2024-03-07T10:27:09;36.97;;;20.48;;
51332;SDS011;37417;48.118;11.734;2024-03-07T10:29:55;30.27;;;19.23;;
51332;SDS011;37417;48.118;11.734;2024-03-07T10:32:41;35.47;;;19.65;;
51332;SDS011;37417;48.118;11.734;2024-03-07T10:35:26;31.30;;;19.23;;
51332;SDS011;37417;48.118;11.734;2024-03-07T10:38:12;33.25;;;18.17;;
51332;SDS011;37417;48.118;11.734;2024-03-07T10:40:57;33.20;;;18.60;;
51332;SDS011;37417;48.118;11.734;2024-03-07T10:43:44;32.55;;;18.50;;
51332;SDS011;37417;48.118;11.734;2024-03-07T10:46:31;31.50;;;18.40;;
51332;SDS011;37417;48.118;11.734;2024-03-07T10:49:18;32.40;;;19.20;;
51332;SDS011;37417;48.118;11.734;2024-03-07T10:52:10;33.20;;;19.60;;
51332;SDS011;37417;48.118;11.734;2024-03-07T10:55:08;32.17;;;18.00;;
51332;SDS011;37417;48.118;11.734;2024-03-07T10:58:02;29.92;;;18.75;;
51332;SDS011;37417;48.118;11.734;2024-03-07T11:00:47;29.50;;;18.10;;
51332;SDS011;37417;48.118;11.734;2024-03-07T11:03:34;28.42;;;17.50;;
51332;SDS011;37417;48.118;11.734;2024-03-07T11:06:20;21.38;;;12.07;;
51332;SDS011;37417;48.118;11.734;2024-03-07T11:09:06;27.10;;;16.13;;
51332;SDS011;37417;48.118;11.734;2024-03-07T11:11:56;23.60;;;15.57;;
51332;SDS011;37417;48.118;11.734;2024-03-07T11:14:42;24.70;;;16.40;;
51332;SDS011;37417;48.118;11.734;2024-03-07T11:17:43;26.42;;;15.23;;
51332;SDS011;37417;48.118;11.734;2024-03-07T11:20:36;25.08;;;15.90;;
51332;SDS011;37417;48.118;11.734;2024-03-07T11:26:07;31.00;;;17.20;;
51332;SDS011;37417;48.118;11.734;2024-03-07T11:28:53;26.63;;;17.02;;
51332;SDS011;37417;48.118;11.734;2024-03-07T11:31:39;26.95;;;16.55;;
51332;SDS011;37417;48.118;11.734;2024-03-07T11:34:24;25.27;;;17.10;;
51332;SDS011;37417;48.118;11.734;2024-03-07T11:37:19;26.08;;;16.90;;
51332;SDS011;37417;48.118;11.734;2024-03-07T11:40:07;23.60;;;14.43;;
51332;SDS011;37417;48.118;11.734;2024-03-07T11:42:54;26.92;;;16.35;;
51332;SDS011;37417;48.118;11.734;2024-03-07T11:45:42;22.65;;;15.60;;
51332;SDS011;37417;48.118;11.734;2024-03-07T11:48:30;21.05;;;15.05;;
51332;SDS011;37417;48.118;11.734;2024-03-07T11:51:19;25.08;;;16.95;;
51332;SDS011;37417;48.118;11.734;2024-03-07T11:54:08;25.70;;;17.13;;
51332;SDS011;37417;48.118;11.734;2024-03-07T11:56:53;24.33;;;15.82;;
51332;SDS011;37417;48.118;11.734;2024-03-07T11:59:42;31.20;;;16.92;;
51332;SDS011;37417;48.118;11.734;2024-03-07T12:02:37;28.30;;;16.48;;
51332;SDS011;37417;48.118;11.734;2024-03-07T12:05:23;28.35;;;15.65;;
51332;SDS011;37417;48.118;11.734;2024-03-07T12:08:10;33.53;;;18.40;;
51332;SDS011;37417;48.118;11.734;2024-03-07T12:10:56;30.55;;;16.83;;
51332;SDS011;37417;48.118;11.734;2024-03-07T12:13:42;33.55;;;18.77;;
51332;SDS011;37417;48.118;11.734;2024-03-07T12:16:27;33.15;;;18.90;;
51332;SDS011;37417;48.118;11.734;2024-03-07T12:19:14;27.65;;;15.48;;
51332;SDS011;37417;48.118;11.734;2024-03-07T12:22:02;29.00;;;18.35;;
51332;SDS011;37417;48.118;11.734;2024-03-07T12:24:58;30.25;;;19.13;;
51332;SDS011;37417;48.118;11.734;2024-03-07T12:27:44;28.80;;;17.00;;
51332;SDS011;37417;48.118;11.734;2024-03-07T12:30:30;31.85;;;18.50;;
51332;SDS011;37417;48.118;11.734;2024-03-07T12:33:18;32.78;;;18.52;;
51332;SDS011;37417;48.118;11.734;2024-03-07T12:36:04;29.13;;;16.60;;
51332;SDS011;37417;48.118;11.734;2024-03-07T12:38:53;32.85;;;17.17;;
51332;SDS011;37417;48.118;11.734;2024-03-07T12:41:39;28.38;;;14.98;;
51332;SDS011;37417;48.118;11.734;2024-03-07T12:44:25;29.00;;;17.50;;
51332;SDS011;37417;48.118;11.734;2024-03-07T12:47:10;31.20;;;18.27;;
51332;SDS011;37417;48.118;11.734;2024-03-07T12:49:56;32.97;;;18.95;;
51332;SDS011;37417;48.118;11.734;2024-03-07T12:52:43;29.20;;;17.13;;
51332;SDS011;37417;48.118;11.734;2024-03-07T12:55:29;34.72;;;20.40;;
51332;SDS011;37417;48.118;11.734;2024-03-07T12:58:14;31.75;;;18.70;;
51332;SDS011;37417;48.118;11.734;2024-03-07T13:01:00;35.70;;;18.77;;
51332;SDS011;37417;48.118;11.734;2024-03-07T13:03:46;35.03;;;18.25;;
51332;SDS011;37417;48.118;11.734;2024-03-07T13:06:32;33.25;;;19.40;;
51332;SDS011;37417;48.118;11.734;2024-03-07T13:09:17;34.50;;;19.73;;
51332;SDS011;37417;48.118;11.734;2024-03-07T13:12:12;25.00;;;16.20;;
51332;SDS011;37417;48.118;11.734;2024-03-07T13:14:59;26.83;;;16.30;;
51332;SDS011;37417;48.118;11.734;2024-03-07T13:17:45;27.70;;;15.73;;
51332;SDS011;37417;48.118;11.734;2024-03-07T13:20:31;21.63;;;12.45;;
51332;SDS011;37417;48.118;11.734;2024-03-07T13:23:16;26.60;;;15.25;;
51332;SDS011;37417;48.118;11.734;2024-03-07T13:26:02;28.70;;;15.55;;
51332;SDS011;37417;48.118;11.734;2024-03-07T13:28:53;31.33;;;17.25;;
51332;SDS011;37417;48.118;11.734;2024-03-07T13:31:39;24.88;;;15.52;;
51332;SDS011;37417;48.118;11.734;2024-03-07T13:34:25;29.75;;;15.68;;
51332;SDS011;37417;48.118;11.734;2024-03-07T13:37:11;24.45;;;15.27;;
51332;SDS011;37417;48.118;11.734;2024-03-07T13:39:59;24.38;;;14.90;;
51332;SDS011;37417;48.118;11.734;2024-03-07T13:42:44;30.25;;;16.63;;
51332;SDS011;37417;48.118;11.734;2024-03-07T13:45:30;26.88;;;15.60;;
51332;SDS011;37417;48.118;11.734;2024-03-07T13:48:16;29.02;;;14.30;;
51332;SDS011;37417;48.118;11.734;2024-03-07T13:51:02;25.13;;;15.45;;
51332;SDS011;37417;48.118;11.734;2024-03-07T13:53:53;33.53;;;15.50;;
51332;SDS011;37417;48.118;11.734;2024-03-07T14:00:16;34.67;;;19.13;;
51332;SDS011;37417;48.118;11.734;2024-03-07T14:06:04;30.60;;;18.35;;
51332;SDS011;37417;48.118;11.734;2024-03-07T14:11:57;36.05;;;20.73;;
51332;SDS011;37417;48.118;11.734;2024-03-07T14:21:10;33.55;;;19.70;;
51332;SDS011;37417;48.118;11.734;2024-03-07T14:30:36;27.98;;;17.88;;
51332;SDS011;37417;48.118;11.734;2024-03-07T14:33:18;30.00;;;19.05;;
51332;SDS011;37417;48.118;11.734;2024-03-07T14:36:09;32.78;;;19.08;;
51332;SDS011;37417;48.118;11.734;2024-03-07T14:38:56;29.20;;;18.33;;
51332;SDS011;37417;48.118;11.734;2024-03-07T14:41:44;34.10;;;19.23;;
51332;SDS011;37417;48.118;11.734;2024-03-07T14:44:32;32.72;;;19.05;;
51332;SDS011;37417;48.118;11.734;2024-03-07T14:47:19;32.65;;;15.98;;
51332;SDS011;37417;48.118;11.734;2024-03-07T14:50:05;28.98;;;16.95;;
51332;SDS011;37417;48.118;11.734;2024-03-07T14:52:55;27.30;;;16.50;;
51332;SDS011;37417;48.118;11.734;2024-03-07T14:55:41;30.92;;;18.08;;
51332;SDS011;37417;48.118;11.734;2024-03-07T14:58:26;27.85;;;16.30;;
51332;SDS011;37417;48.118;11.734;2024-03-07T15:01:12;28.38;;;18.35;;
51332;SDS011;37417;48.118;11.734;2024-03-07T15:03:58;31.40;;;17.45;;
51332;SDS011;37417;48.118;11.734;2024-03-07T15:06:44;33.88;;;17.15;;
51332;SDS011;37417;48.118;11.734;2024-03-07T15:09:30;31.75;;;17.15;;
51332;SDS011;37417;48.118;11.734;2024-03-07T15:12:17;28.90;;;15.57;;
51332;SDS011;37417;48.118;11.734;2024-03-07T15:15:03;25.30;;;16.08;;
51332;SDS011;37417;48.118;11.734;2024-03-07T15:17:49;21.95;;;14.48;;
51332;SDS011;37417;48.118;11.734;2024-03-07T15:20:34;24.73;;;14.32;;
51332;SDS011;37417;48.118;11.734;2024-03-07T15:23:20;26.15;;;13.73;;
51332;SDS011;37417;48.118;11.734;2024-03-07T15:26:07;18.13;;;12.10;;
51332;SDS011;37417;48.118;11.734;2024-03-07T15:28:53;22.67;;;11.38;;
51332;SDS011;37417;48.118;11.734;2024-03-07T15:31:40;18.08;;;10.70;;
51332;SDS011;37417;48.118;11.734;2024-03-07T15:34:26;21.42;;;12.57;;
51332;SDS011;37417;48.118;11.734;2024-03-07T15:37:12;20.27;;;11.20;;
51332;SDS011;37417;48.118;11.734;2024-03-07T15:40:03;18.20;;;10.98;;
51332;SDS011;37417;48.118;11.734;2024-03-07T15:42:49;18.38;;;9.43;;
51332;SDS011;37417;48.118;11.734;2024-03-07T15:45:38;17.23;;;10.82;;
51332;SDS011;37417;48.118;11.734;2024-03-07T15:48:24;18.08;;;10.88;;
51332;SDS011;37417;48.118;11.734;2024-03-07T15:51:10;17.95;;;11.25;;
51332;SDS011;37417;48.118;11.734;2024-03-07T15:53:57;18.65;;;11.70;;
51332;SDS011;37417;48.118;11.734;2024-03-07T15:56:42;18.67;;;9.52;;
51332;SDS011;37417;48.118;11.734;2024-03-07T15:59:28;17.73;;;10.40;;
51332;SDS011;37417;48.118;11.734;2024-03-07T16:02:13;14.02;;;9.55;;
51332;SDS011;37417;48.118;11.734;2024-03-07T16:04:59;16.80;;;9.13;;
51332;SDS011;37417;48.118;11.734;2024-03-07T16:07:45;17.20;;;10.82;;
51332;SDS011;37417;48.118;11.734;2024-03-07T16:10:31;15.05;;;8.57;;
51332;SDS011;37417;48.118;11.734;2024-03-07T16:13:17;15.93;;;8.75;;
51332;SDS011;37417;48.118;11.734;2024-03-07T16:16:03;17.05;;;10.98;;
51332;SDS011;37417;48.118;11.734;2024-03-07T16:18:50;15.77;;;9.80;;
51332;SDS011;37417;48.118;11.734;2024-03-07T16:21:37;15.88;;;8.18;;
51332;SDS011;37417;48.118;11.734;2024-03-07T16:24:23;16.50;;;9.40;;
51332;SDS011;37417;48.118;11.734;2024-03-07T16:27:10;17.52;;;10.00;;